sensor_id;sensor_type;location;lat;lon;timestamp;P1;durP1;ratioP1;P2;durP2;ratioP2
83398;SDS011;73326;43.228;0.106;2023-11-22T00:00:10;3.42;;;2.80;;
83398;SDS011;73326;43.228;0.106;2023-11-22T00:02:37;6.90;;;2.72;;
83398;SDS011;73326;43.228;0.106;2023-11-22T00:05:03;5.57;;;2.75;;
83398;SDS011;73326;43.228;0.106;2023-11-22T00:07:30;4.60;;;2.50;;
83398;SDS011;73326;43.228;0.106;2023-11-22T00:09:56;4.47;;;2.33;;
83398;SDS011;73326;43.228;0.106;2023-11-22T00:12:23;3.00;;;2.33;;
83398;SDS011;73326;43.228;0.106;2023-11-22T00:14:49;3.63;;;2.70;;
83398;SDS011;73326;43.228;0.106;2023-11-22T00:17:16;4.20;;;2.65;;
83398;SDS011;73326;43.228;0.106;2023-11-22T00:19:42;3.90;;;2.50;;
83398;SDS011;73326;43.228;0.106;2023-11-22T00:22:09;6.68;;;2.90;;
83398;SDS011;73326;43.228;0.106;2023-11-22T00:24:40;6.13;;;3.42;;
83398;SDS011;73326;43.228;0.106;2023-11-22T00:27:06;5.28;;;3.33;;
83398;SDS011;73326;43.228;0.106;2023-11-22T00:29:32;5.75;;;3.20;;
83398;SDS011;73326;43.228;0.106;2023-11-22T00:31:58;5.10;;;3.28;;
83398;SDS011;73326;43.228;0.106;2023-11-22T00:34:25;8.05;;;3.75;;
83398;SDS011;73326;43.228;0.106;2023-11-22T00:36:51;6.97;;;3.30;;
83398;SDS011;73326;43.228;0.106;2023-11-22T00:39:17;6.78;;;3.65;;
83398;SDS011;73326;43.228;0.106;2023-11-22T00:41:44;9.00;;;3.40;;
83398;SDS011;73326;43.228;0.106;2023-11-22T00:44:10;6.63;;;3.70;;
83398;SDS011;73326;43.228;0.106;2023-11-22T00:46:36;6.35;;;3.90;;
83398;SDS011;73326;43.228;0.106;2023-11-22T00:49:02;7.80;;;4.22;;
83398;SDS011;73326;43.228;0.106;2023-11-22T00:51:29;8.15;;;4.43;;
83398;SDS011;73326;43.228;0.106;2023-11-22T00:53:56;7.40;;;4.38;;
83398;SDS011;73326;43.228;0.106;2023-11-22T00:56:22;9.95;;;5.22;;
83398;SDS011;73326;43.228;0.106;2023-11-22T00:58:48;8.73;;;4.50;;
83398;SDS011;73326;43.228;0.106;2023-11-22T01:01:15;10.55;;;4.50;;
83398;SDS011;73326;43.228;0.106;2023-11-22T01:03:41;6.65;;;4.68;;
83398;SDS011;73326;43.228;0.106;2023-11-22T01:06:07;10.30;;;4.57;;
83398;SDS011;73326;43.228;0.106;2023-11-22T01:08:34;9.85;;;4.85;;
83398;SDS011;73326;43.228;0.106;2023-11-22T01:11:02;6.45;;;4.88;;
83398;SDS011;73326;43.228;0.106;2023-11-22T01:13:32;8.73;;;5.10;;
83398;SDS011;73326;43.228;0.106;2023-11-22T01:15:58;12.48;;;4.60;;
83398;SDS011;73326;43.228;0.106;2023-11-22T01:18:24;10.43;;;5.28;;
83398;SDS011;73326;43.228;0.106;2023-11-22T01:20:50;7.95;;;5.10;;
83398;SDS011;73326;43.228;0.106;2023-11-22T01:23:16;7.30;;;4.68;;
83398;SDS011;73326;43.228;0.106;2023-11-22T01:25:42;12.57;;;5.32;;
83398;SDS011;73326;43.228;0.106;2023-11-22T01:28:08;9.77;;;5.40;;
83398;SDS011;73326;43.228;0.106;2023-11-22T01:30:36;10.15;;;5.32;;
83398;SDS011;73326;43.228;0.106;2023-11-22T01:33:03;8.98;;;5.38;;
83398;SDS011;73326;43.228;0.106;2023-11-22T01:35:29;9.77;;;5.63;;
83398;SDS011;73326;43.228;0.106;2023-11-22T01:37:55;10.68;;;5.53;;
83398;SDS011;73326;43.228;0.106;2023-11-22T01:40:23;9.30;;;5.20;;
83398;SDS011;73326;43.228;0.106;2023-11-22T01:42:51;9.63;;;5.18;;
83398;SDS011;73326;43.228;0.106;2023-11-22T01:45:19;8.35;;;5.28;;
83398;SDS011;73326;43.228;0.106;2023-11-22T01:47:45;8.60;;;5.25;;
83398;SDS011;73326;43.228;0.106;2023-11-22T01:50:11;9.15;;;5.50;;
83398;SDS011;73326;43.228;0.106;2023-11-22T01:52:39;8.15;;;5.32;;
83398;SDS011;73326;43.228;0.106;2023-11-22T01:55:05;10.38;;;5.00;;
83398;SDS011;73326;43.228;0.106;2023-11-22T01:57:33;12.32;;;5.57;;
83398;SDS011;73326;43.228;0.106;2023-11-22T02:00:02;9.30;;;5.57;;
83398;SDS011;73326;43.228;0.106;2023-11-22T02:02:32;8.70;;;5.40;;
83398;SDS011;73326;43.228;0.106;2023-11-22T02:04:58;8.77;;;4.75;;
83398;SDS011;73326;43.228;0.106;2023-11-22T02:07:26;7.55;;;5.03;;
83398;SDS011;73326;43.228;0.106;2023-11-22T02:09:52;10.18;;;5.18;;
83398;SDS011;73326;43.228;0.106;2023-11-22T02:12:19;10.27;;;5.05;;
83398;SDS011;73326;43.228;0.106;2023-11-22T02:14:45;9.32;;;4.43;;
83398;SDS011;73326;43.228;0.106;2023-11-22T02:17:11;7.35;;;4.32;;
83398;SDS011;73326;43.228;0.106;2023-11-22T02:19:38;7.13;;;4.15;;
83398;SDS011;73326;43.228;0.106;2023-11-22T02:22:04;6.18;;;3.85;;
83398;SDS011;73326;43.228;0.106;2023-11-22T02:24:30;10.52;;;4.70;;
83398;SDS011;73326;43.228;0.106;2023-11-22T02:26:58;7.60;;;4.80;;
83398;SDS011;73326;43.228;0.106;2023-11-22T02:29:24;9.80;;;4.20;;
83398;SDS011;73326;43.228;0.106;2023-11-22T02:31:50;7.57;;;4.50;;
83398;SDS011;73326;43.228;0.106;2023-11-22T02:34:16;8.80;;;4.70;;
83398;SDS011;73326;43.228;0.106;2023-11-22T02:36:42;9.45;;;4.32;;
83398;SDS011;73326;43.228;0.106;2023-11-22T02:39:08;9.18;;;3.92;;
83398;SDS011;73326;43.228;0.106;2023-11-22T02:41:34;6.90;;;4.22;;
83398;SDS011;73326;43.228;0.106;2023-11-22T02:44:01;7.10;;;4.28;;
83398;SDS011;73326;43.228;0.106;2023-11-22T02:46:27;7.90;;;4.68;;
83398;SDS011;73326;43.228;0.106;2023-11-22T02:48:54;7.03;;;4.72;;
83398;SDS011;73326;43.228;0.106;2023-11-22T02:51:20;8.52;;;5.28;;
83398;SDS011;73326;43.228;0.106;2023-11-22T02:53:47;7.13;;;4.70;;
83398;SDS011;73326;43.228;0.106;2023-11-22T02:56:15;9.15;;;4.93;;
83398;SDS011;73326;43.228;0.106;2023-11-22T02:58:41;8.98;;;5.32;;
83398;SDS011;73326;43.228;0.106;2023-11-22T03:01:07;9.52;;;5.47;;
83398;SDS011;73326;43.228;0.106;2023-11-22T03:03:33;9.73;;;5.65;;
83398;SDS011;73326;43.228;0.106;2023-11-22T03:06:00;11.57;;;5.57;;
83398;SDS011;73326;43.228;0.106;2023-11-22T03:08:26;8.93;;;5.55;;
83398;SDS011;73326;43.228;0.106;2023-11-22T03:10:52;8.45;;;5.53;;
83398;SDS011;73326;43.228;0.106;2023-11-22T03:13:18;11.73;;;6.30;;
83398;SDS011;73326;43.228;0.106;2023-11-22T03:15:45;9.55;;;5.75;;
83398;SDS011;73326;43.228;0.106;2023-11-22T03:18:11;11.75;;;6.50;;
83398;SDS011;73326;43.228;0.106;2023-11-22T03:20:37;8.98;;;5.95;;
83398;SDS011;73326;43.228;0.106;2023-11-22T03:23:04;9.10;;;5.25;;
83398;SDS011;73326;43.228;0.106;2023-11-22T03:25:30;10.63;;;6.00;;
83398;SDS011;73326;43.228;0.106;2023-11-22T03:27:56;8.00;;;5.78;;
83398;SDS011;73326;43.228;0.106;2023-11-22T03:30:22;9.85;;;5.70;;
83398;SDS011;73326;43.228;0.106;2023-11-22T03:32:48;10.90;;;5.70;;
83398;SDS011;73326;43.228;0.106;2023-11-22T03:35:15;11.98;;;5.65;;
83398;SDS011;73326;43.228;0.106;2023-11-22T03:37:41;10.05;;;5.68;;
83398;SDS011;73326;43.228;0.106;2023-11-22T03:40:08;11.35;;;5.95;;
83398;SDS011;73326;43.228;0.106;2023-11-22T03:42:38;9.50;;;5.90;;
83398;SDS011;73326;43.228;0.106;2023-11-22T03:45:05;13.43;;;6.78;;
83398;SDS011;73326;43.228;0.106;2023-11-22T03:47:31;10.27;;;6.13;;
83398;SDS011;73326;43.228;0.106;2023-11-22T03:49:58;8.75;;;5.60;;
83398;SDS011;73326;43.228;0.106;2023-11-22T03:52:24;9.57;;;5.78;;
83398;SDS011;73326;43.228;0.106;2023-11-22T03:54:52;12.88;;;6.40;;
83398;SDS011;73326;43.228;0.106;2023-11-22T03:57:18;13.43;;;5.68;;
83398;SDS011;73326;43.228;0.106;2023-11-22T03:59:44;13.98;;;6.07;;
83398;SDS011;73326;43.228;0.106;2023-11-22T04:02:10;9.23;;;5.57;;
83398;SDS011;73326;43.228;0.106;2023-11-22T04:04:36;9.77;;;6.15;;
83398;SDS011;73326;43.228;0.106;2023-11-22T04:07:05;9.48;;;6.03;;
83398;SDS011;73326;43.228;0.106;2023-11-22T04:09:31;9.50;;;5.93;;
83398;SDS011;73326;43.228;0.106;2023-11-22T04:11:57;10.65;;;5.88;;
83398;SDS011;73326;43.228;0.106;2023-11-22T04:14:23;11.13;;;6.13;;
83398;SDS011;73326;43.228;0.106;2023-11-22T04:16:52;9.38;;;5.75;;
83398;SDS011;73326;43.228;0.106;2023-11-22T04:19:18;9.18;;;5.70;;
83398;SDS011;73326;43.228;0.106;2023-11-22T04:21:44;13.23;;;6.05;;
83398;SDS011;73326;43.228;0.106;2023-11-22T04:24:10;8.55;;;5.53;;
83398;SDS011;73326;43.228;0.106;2023-11-22T04:26:37;10.20;;;5.15;;
83398;SDS011;73326;43.228;0.106;2023-11-22T04:29:03;10.10;;;5.55;;
83398;SDS011;73326;43.228;0.106;2023-11-22T04:31:30;9.32;;;5.43;;
83398;SDS011;73326;43.228;0.106;2023-11-22T04:33:56;9.15;;;5.53;;
83398;SDS011;73326;43.228;0.106;2023-11-22T04:36:23;9.05;;;5.07;;
83398;SDS011;73326;43.228;0.106;2023-11-22T04:38:49;7.55;;;5.65;;
83398;SDS011;73326;43.228;0.106;2023-11-22T04:41:15;8.57;;;5.28;;
83398;SDS011;73326;43.228;0.106;2023-11-22T04:43:43;8.45;;;5.47;;
83398;SDS011;73326;43.228;0.106;2023-11-22T04:46:10;10.68;;;6.00;;
83398;SDS011;73326;43.228;0.106;2023-11-22T04:48:36;10.25;;;5.70;;
83398;SDS011;73326;43.228;0.106;2023-11-22T04:51:06;10.38;;;5.97;;
83398;SDS011;73326;43.228;0.106;2023-11-22T04:53:32;8.02;;;5.88;;
83398;SDS011;73326;43.228;0.106;2023-11-22T04:55:58;8.70;;;5.63;;
83398;SDS011;73326;43.228;0.106;2023-11-22T04:58:24;8.88;;;5.40;;
83398;SDS011;73326;43.228;0.106;2023-11-22T05:00:50;8.57;;;5.78;;
83398;SDS011;73326;43.228;0.106;2023-11-22T05:03:16;6.88;;;5.90;;
83398;SDS011;73326;43.228;0.106;2023-11-22T05:05:42;8.50;;;5.63;;
83398;SDS011;73326;43.228;0.106;2023-11-22T05:08:08;8.38;;;5.78;;
83398;SDS011;73326;43.228;0.106;2023-11-22T05:10:34;11.75;;;5.95;;
83398;SDS011;73326;43.228;0.106;2023-11-22T05:13:00;9.75;;;5.75;;
83398;SDS011;73326;43.228;0.106;2023-11-22T05:15:28;7.65;;;5.47;;
83398;SDS011;73326;43.228;0.106;2023-11-22T05:17:54;10.80;;;6.63;;
83398;SDS011;73326;43.228;0.106;2023-11-22T05:20:21;8.82;;;5.28;;
83398;SDS011;73326;43.228;0.106;2023-11-22T05:22:47;10.15;;;5.53;;
83398;SDS011;73326;43.228;0.106;2023-11-22T05:25:13;10.90;;;5.75;;
83398;SDS011;73326;43.228;0.106;2023-11-22T05:27:39;7.70;;;5.15;;
83398;SDS011;73326;43.228;0.106;2023-11-22T05:30:05;10.05;;;5.25;;
83398;SDS011;73326;43.228;0.106;2023-11-22T05:32:31;9.70;;;5.53;;
83398;SDS011;73326;43.228;0.106;2023-11-22T05:34:57;9.45;;;5.32;;
83398;SDS011;73326;43.228;0.106;2023-11-22T05:37:24;10.55;;;5.50;;
83398;SDS011;73326;43.228;0.106;2023-11-22T05:39:50;9.23;;;5.80;;
83398;SDS011;73326;43.228;0.106;2023-11-22T05:42:16;9.10;;;5.80;;
83398;SDS011;73326;43.228;0.106;2023-11-22T05:44:43;8.93;;;5.65;;
83398;SDS011;73326;43.228;0.106;2023-11-22T05:47:09;7.97;;;5.35;;
83398;SDS011;73326;43.228;0.106;2023-11-22T05:49:35;10.90;;;5.95;;
83398;SDS011;73326;43.228;0.106;2023-11-22T05:52:01;10.45;;;6.18;;
83398;SDS011;73326;43.228;0.106;2023-11-22T05:54:27;11.23;;;5.78;;
83398;SDS011;73326;43.228;0.106;2023-11-22T05:56:54;9.23;;;6.40;;
83398;SDS011;73326;43.228;0.106;2023-11-22T05:59:20;9.55;;;5.60;;
83398;SDS011;73326;43.228;0.106;2023-11-22T06:01:46;8.77;;;5.97;;
83398;SDS011;73326;43.228;0.106;2023-11-22T06:04:12;10.10;;;6.00;;
83398;SDS011;73326;43.228;0.106;2023-11-22T06:06:38;11.70;;;6.50;;
83398;SDS011;73326;43.228;0.106;2023-11-22T06:09:04;9.32;;;5.35;;
83398;SDS011;73326;43.228;0.106;2023-11-22T06:11:32;7.40;;;5.47;;
83398;SDS011;73326;43.228;0.106;2023-11-22T06:13:58;8.90;;;5.32;;
83398;SDS011;73326;43.228;0.106;2023-11-22T06:16:25;7.28;;;4.85;;
83398;SDS011;73326;43.228;0.106;2023-11-22T06:18:51;6.82;;;4.45;;
83398;SDS011;73326;43.228;0.106;2023-11-22T06:21:17;6.95;;;4.68;;
83398;SDS011;73326;43.228;0.106;2023-11-22T06:23:43;6.10;;;4.75;;
83398;SDS011;73326;43.228;0.106;2023-11-22T06:26:10;6.72;;;4.53;;
83398;SDS011;73326;43.228;0.106;2023-11-22T06:28:36;7.32;;;5.07;;
83398;SDS011;73326;43.228;0.106;2023-11-22T06:31:02;5.55;;;4.32;;
83398;SDS011;73326;43.228;0.106;2023-11-22T06:33:28;7.30;;;4.70;;
83398;SDS011;73326;43.228;0.106;2023-11-22T06:35:54;8.48;;;5.07;;
83398;SDS011;73326;43.228;0.106;2023-11-22T06:38:20;7.53;;;4.50;;
83398;SDS011;73326;43.228;0.106;2023-11-22T06:40:46;7.22;;;4.40;;
83398;SDS011;73326;43.228;0.106;2023-11-22T06:43:12;6.80;;;4.30;;
83398;SDS011;73326;43.228;0.106;2023-11-22T06:45:38;9.20;;;4.78;;
83398;SDS011;73326;43.228;0.106;2023-11-22T06:48:04;7.22;;;4.60;;
83398;SDS011;73326;43.228;0.106;2023-11-22T06:50:30;6.70;;;4.60;;
83398;SDS011;73326;43.228;0.106;2023-11-22T06:52:56;8.85;;;5.20;;
83398;SDS011;73326;43.228;0.106;2023-11-22T06:55:22;6.60;;;4.88;;
83398;SDS011;73326;43.228;0.106;2023-11-22T06:57:48;6.57;;;4.32;;
83398;SDS011;73326;43.228;0.106;2023-11-22T07:00:15;7.32;;;4.80;;
83398;SDS011;73326;43.228;0.106;2023-11-22T07:02:41;7.05;;;4.30;;
83398;SDS011;73326;43.228;0.106;2023-11-22T07:05:07;9.07;;;5.85;;
83398;SDS011;73326;43.228;0.106;2023-11-22T07:07:37;9.27;;;6.15;;
83398;SDS011;73326;43.228;0.106;2023-11-22T07:10:03;18.88;;;6.35;;
83398;SDS011;73326;43.228;0.106;2023-11-22T07:12:30;12.00;;;5.97;;
83398;SDS011;73326;43.228;0.106;2023-11-22T07:14:56;10.23;;;5.93;;
83398;SDS011;73326;43.228;0.106;2023-11-22T07:17:24;8.60;;;5.70;;
83398;SDS011;73326;43.228;0.106;2023-11-22T07:19:52;8.82;;;5.80;;
83398;SDS011;73326;43.228;0.106;2023-11-22T07:22:19;8.32;;;5.35;;
83398;SDS011;73326;43.228;0.106;2023-11-22T07:24:47;8.63;;;5.45;;
83398;SDS011;73326;43.228;0.106;2023-11-22T07:27:16;10.77;;;6.05;;
83398;SDS011;73326;43.228;0.106;2023-11-22T07:29:42;10.63;;;6.47;;
83398;SDS011;73326;43.228;0.106;2023-11-22T07:32:10;11.80;;;6.78;;
83398;SDS011;73326;43.228;0.106;2023-11-22T07:34:37;10.32;;;7.38;;
83398;SDS011;73326;43.228;0.106;2023-11-22T07:37:04;11.23;;;7.45;;
83398;SDS011;73326;43.228;0.106;2023-11-22T07:39:32;10.00;;;6.40;;
83398;SDS011;73326;43.228;0.106;2023-11-22T07:42:00;12.55;;;8.30;;
83398;SDS011;73326;43.228;0.106;2023-11-22T07:44:26;9.65;;;7.00;;
83398;SDS011;73326;43.228;0.106;2023-11-22T07:46:52;7.53;;;5.63;;
83398;SDS011;73326;43.228;0.106;2023-11-22T07:49:19;9.18;;;7.28;;
83398;SDS011;73326;43.228;0.106;2023-11-22T07:51:46;8.63;;;5.53;;
83398;SDS011;73326;43.228;0.106;2023-11-22T07:54:12;7.72;;;6.60;;
83398;SDS011;73326;43.228;0.106;2023-11-22T07:56:42;6.65;;;5.28;;
83398;SDS011;73326;43.228;0.106;2023-11-22T07:59:11;7.53;;;5.93;;
83398;SDS011;73326;43.228;0.106;2023-11-22T08:01:37;9.77;;;7.18;;
83398;SDS011;73326;43.228;0.106;2023-11-22T08:04:04;8.75;;;5.97;;
83398;SDS011;73326;43.228;0.106;2023-11-22T08:06:31;7.28;;;5.32;;
83398;SDS011;73326;43.228;0.106;2023-11-22T08:08:58;7.32;;;5.03;;
83398;SDS011;73326;43.228;0.106;2023-11-22T08:11:27;6.88;;;5.03;;
83398;SDS011;73326;43.228;0.106;2023-11-22T08:13:54;8.95;;;5.28;;
83398;SDS011;73326;43.228;0.106;2023-11-22T08:16:22;9.55;;;5.00;;
83398;SDS011;73326;43.228;0.106;2023-11-22T08:18:49;7.80;;;5.43;;
83398;SDS011;73326;43.228;0.106;2023-11-22T08:21:17;8.52;;;5.40;;
83398;SDS011;73326;43.228;0.106;2023-11-22T08:23:43;9.07;;;6.07;;
83398;SDS011;73326;43.228;0.106;2023-11-22T08:26:10;7.68;;;5.65;;
83398;SDS011;73326;43.228;0.106;2023-11-22T08:28:37;5.93;;;4.47;;
83398;SDS011;73326;43.228;0.106;2023-11-22T08:31:03;13.60;;;8.25;;
83398;SDS011;73326;43.228;0.106;2023-11-22T08:33:29;9.90;;;6.97;;
83398;SDS011;73326;43.228;0.106;2023-11-22T08:35:55;8.32;;;6.85;;
83398;SDS011;73326;43.228;0.106;2023-11-22T08:38:24;8.20;;;7.30;;
83398;SDS011;73326;43.228;0.106;2023-11-22T08:40:51;9.60;;;6.80;;
83398;SDS011;73326;43.228;0.106;2023-11-22T08:43:17;7.72;;;5.47;;
83398;SDS011;73326;43.228;0.106;2023-11-22T08:45:48;12.23;;;5.00;;
83398;SDS011;73326;43.228;0.106;2023-11-22T08:48:14;5.97;;;4.78;;
83398;SDS011;73326;43.228;0.106;2023-11-22T08:50:40;8.13;;;5.50;;
83398;SDS011;73326;43.228;0.106;2023-11-22T08:53:06;8.98;;;5.00;;
83398;SDS011;73326;43.228;0.106;2023-11-22T08:55:33;5.55;;;4.15;;
83398;SDS011;73326;43.228;0.106;2023-11-22T08:57:59;6.75;;;4.75;;
83398;SDS011;73326;43.228;0.106;2023-11-22T09:00:25;7.03;;;6.03;;
83398;SDS011;73326;43.228;0.106;2023-11-22T09:02:53;8.85;;;5.28;;
83398;SDS011;73326;43.228;0.106;2023-11-22T09:05:22;5.75;;;4.65;;
83398;SDS011;73326;43.228;0.106;2023-11-22T09:07:48;6.88;;;5.70;;
83398;SDS011;73326;43.228;0.106;2023-11-22T09:10:16;6.65;;;5.60;;
83398;SDS011;73326;43.228;0.106;2023-11-22T09:12:43;7.55;;;5.97;;
83398;SDS011;73326;43.228;0.106;2023-11-22T09:15:10;6.80;;;5.57;;
83398;SDS011;73326;43.228;0.106;2023-11-22T09:17:37;6.90;;;6.20;;
83398;SDS011;73326;43.228;0.106;2023-11-22T09:20:08;8.88;;;7.50;;
83398;SDS011;73326;43.228;0.106;2023-11-22T09:22:36;10.55;;;8.30;;
83398;SDS011;73326;43.228;0.106;2023-11-22T09:25:04;8.25;;;6.90;;
83398;SDS011;73326;43.228;0.106;2023-11-22T09:27:34;8.85;;;7.35;;
83398;SDS011;73326;43.228;0.106;2023-11-22T09:30:02;7.97;;;5.53;;
83398;SDS011;73326;43.228;0.106;2023-11-22T09:32:28;8.50;;;4.38;;
83398;SDS011;73326;43.228;0.106;2023-11-22T09:34:54;7.13;;;5.93;;
83398;SDS011;73326;43.228;0.106;2023-11-22T09:37:23;8.38;;;7.00;;
83398;SDS011;73326;43.228;0.106;2023-11-22T09:39:50;7.03;;;6.18;;
83398;SDS011;73326;43.228;0.106;2023-11-22T09:42:16;12.30;;;9.55;;
83398;SDS011;73326;43.228;0.106;2023-11-22T09:44:42;7.22;;;5.82;;
83398;SDS011;73326;43.228;0.106;2023-11-22T09:47:08;10.07;;;6.68;;
83398;SDS011;73326;43.228;0.106;2023-11-22T09:49:35;6.40;;;4.22;;
83398;SDS011;73326;43.228;0.106;2023-11-22T09:52:01;7.05;;;4.15;;
83398;SDS011;73326;43.228;0.106;2023-11-22T09:54:32;8.15;;;6.00;;
83398;SDS011;73326;43.228;0.106;2023-11-22T09:56:59;8.82;;;6.72;;
83398;SDS011;73326;43.228;0.106;2023-11-22T09:59:27;8.93;;;6.25;;
83398;SDS011;73326;43.228;0.106;2023-11-22T10:01:54;10.27;;;6.97;;
83398;SDS011;73326;43.228;0.106;2023-11-22T10:04:20;6.63;;;4.07;;
83398;SDS011;73326;43.228;0.106;2023-11-22T10:06:46;6.80;;;4.70;;
83398;SDS011;73326;43.228;0.106;2023-11-22T10:09:13;7.22;;;4.32;;
83398;SDS011;73326;43.228;0.106;2023-11-22T10:11:39;8.02;;;4.32;;
83398;SDS011;73326;43.228;0.106;2023-11-22T10:14:08;7.50;;;4.70;;
83398;SDS011;73326;43.228;0.106;2023-11-22T10:16:34;7.15;;;4.05;;
83398;SDS011;73326;43.228;0.106;2023-11-22T10:19:00;8.35;;;4.60;;
83398;SDS011;73326;43.228;0.106;2023-11-22T10:21:27;5.32;;;3.40;;
83398;SDS011;73326;43.228;0.106;2023-11-22T10:24:02;6.07;;;4.25;;
83398;SDS011;73326;43.228;0.106;2023-11-22T10:26:28;6.22;;;3.35;;
83398;SDS011;73326;43.228;0.106;2023-11-22T10:28:55;6.45;;;3.65;;
83398;SDS011;73326;43.228;0.106;2023-11-22T10:31:22;5.88;;;4.88;;
83398;SDS011;73326;43.228;0.106;2023-11-22T10:33:48;5.03;;;3.78;;
83398;SDS011;73326;43.228;0.106;2023-11-22T10:36:14;5.07;;;3.80;;
83398;SDS011;73326;43.228;0.106;2023-11-22T10:38:41;6.18;;;3.72;;
83398;SDS011;73326;43.228;0.106;2023-11-22T10:41:12;6.05;;;4.50;;
83398;SDS011;73326;43.228;0.106;2023-11-22T10:43:41;5.72;;;4.03;;
83398;SDS011;73326;43.228;0.106;2023-11-22T10:46:07;5.38;;;4.10;;
83398;SDS011;73326;43.228;0.106;2023-11-22T10:48:37;5.95;;;4.00;;
83398;SDS011;73326;43.228;0.106;2023-11-22T10:51:04;6.53;;;3.53;;
83398;SDS011;73326;43.228;0.106;2023-11-22T10:53:32;3.47;;;2.80;;
83398;SDS011;73326;43.228;0.106;2023-11-22T10:56:11;4.97;;;3.30;;
83398;SDS011;73326;43.228;0.106;2023-11-22T10:58:46;4.40;;;2.85;;
83398;SDS011;73326;43.228;0.106;2023-11-22T11:01:13;6.15;;;3.38;;
83398;SDS011;73326;43.228;0.106;2023-11-22T11:03:41;7.07;;;3.40;;
83398;SDS011;73326;43.228;0.106;2023-11-22T11:06:13;3.67;;;3.13;;
83398;SDS011;73326;43.228;0.106;2023-11-22T11:08:40;3.60;;;2.90;;
83398;SDS011;73326;43.228;0.106;2023-11-22T11:11:08;4.93;;;2.60;;
83398;SDS011;73326;43.228;0.106;2023-11-22T11:13:34;4.43;;;3.20;;
83398;SDS011;73326;43.228;0.106;2023-11-22T11:16:00;4.57;;;3.20;;
83398;SDS011;73326;43.228;0.106;2023-11-22T11:18:26;5.30;;;3.08;;
83398;SDS011;73326;43.228;0.106;2023-11-22T11:23:19;4.95;;;3.40;;
83398;SDS011;73326;43.228;0.106;2023-11-22T11:25:55;3.95;;;2.40;;
83398;SDS011;73326;43.228;0.106;2023-11-22T11:28:21;4.18;;;2.72;;
83398;SDS011;73326;43.228;0.106;2023-11-22T11:30:51;5.00;;;3.25;;
83398;SDS011;73326;43.228;0.106;2023-11-22T11:33:32;4.47;;;2.63;;
83398;SDS011;73326;43.228;0.106;2023-11-22T11:36:00;5.13;;;3.08;;
83398;SDS011;73326;43.228;0.106;2023-11-22T11:38:31;5.68;;;3.40;;
83398;SDS011;73326;43.228;0.106;2023-11-22T11:41:05;6.38;;;3.17;;
83398;SDS011;73326;43.228;0.106;2023-11-22T11:43:47;4.32;;;3.30;;
83398;SDS011;73326;43.228;0.106;2023-11-22T11:46:14;6.50;;;4.00;;
83398;SDS011;73326;43.228;0.106;2023-11-22T11:48:44;4.07;;;3.33;;
83398;SDS011;73326;43.228;0.106;2023-11-22T11:51:17;4.75;;;3.33;;
83398;SDS011;73326;43.228;0.106;2023-11-22T11:53:44;4.60;;;2.90;;
83398;SDS011;73326;43.228;0.106;2023-11-22T11:56:10;8.25;;;3.33;;
83398;SDS011;73326;43.228;0.106;2023-11-22T11:58:36;10.68;;;3.45;;
83398;SDS011;73326;43.228;0.106;2023-11-22T12:01:04;4.43;;;2.97;;
83398;SDS011;73326;43.228;0.106;2023-11-22T12:03:30;3.35;;;2.70;;
83398;SDS011;73326;43.228;0.106;2023-11-22T12:05:56;7.22;;;3.17;;
83398;SDS011;73326;43.228;0.106;2023-11-22T12:08:22;5.00;;;2.53;;
83398;SDS011;73326;43.228;0.106;2023-11-22T12:10:48;3.35;;;2.92;;
83398;SDS011;73326;43.228;0.106;2023-11-22T12:13:18;3.50;;;3.10;;
83398;SDS011;73326;43.228;0.106;2023-11-22T12:15:44;3.72;;;3.00;;
83398;SDS011;73326;43.228;0.106;2023-11-22T12:18:10;3.90;;;2.88;;
83398;SDS011;73326;43.228;0.106;2023-11-22T12:20:37;5.75;;;3.15;;
83398;SDS011;73326;43.228;0.106;2023-11-22T12:23:03;7.05;;;3.55;;
83398;SDS011;73326;43.228;0.106;2023-11-22T12:25:29;3.65;;;3.20;;
83398;SDS011;73326;43.228;0.106;2023-11-22T12:27:56;3.53;;;2.90;;
83398;SDS011;73326;43.228;0.106;2023-11-22T12:30:32;3.58;;;2.85;;
83398;SDS011;73326;43.228;0.106;2023-11-22T12:33:09;3.95;;;3.50;;
83398;SDS011;73326;43.228;0.106;2023-11-22T12:35:35;4.72;;;2.97;;
83398;SDS011;73326;43.228;0.106;2023-11-22T12:38:02;4.90;;;3.38;;
83398;SDS011;73326;43.228;0.106;2023-11-22T12:40:29;7.05;;;4.13;;
83398;SDS011;73326;43.228;0.106;2023-11-22T12:42:58;8.23;;;3.38;;
83398;SDS011;73326;43.228;0.106;2023-11-22T12:45:26;3.97;;;2.60;;
83398;SDS011;73326;43.228;0.106;2023-11-22T12:47:53;3.35;;;2.78;;
83398;SDS011;73326;43.228;0.106;2023-11-22T12:50:35;4.45;;;3.03;;
83398;SDS011;73326;43.228;0.106;2023-11-22T12:53:08;4.40;;;3.58;;
83398;SDS011;73326;43.228;0.106;2023-11-22T12:55:35;6.55;;;2.70;;
83398;SDS011;73326;43.228;0.106;2023-11-22T12:58:01;3.45;;;2.58;;
83398;SDS011;73326;43.228;0.106;2023-11-22T13:00:28;3.35;;;2.58;;
83398;SDS011;73326;43.228;0.106;2023-11-22T13:02:58;4.55;;;2.63;;
83398;SDS011;73326;43.228;0.106;2023-11-22T13:05:24;3.92;;;2.97;;
83398;SDS011;73326;43.228;0.106;2023-11-22T13:07:50;3.90;;;3.13;;
83398;SDS011;73326;43.228;0.106;2023-11-22T13:10:18;4.70;;;2.92;;
83398;SDS011;73326;43.228;0.106;2023-11-22T13:12:44;4.88;;;2.85;;
83398;SDS011;73326;43.228;0.106;2023-11-22T13:15:11;4.90;;;2.40;;
83398;SDS011;73326;43.228;0.106;2023-11-22T13:17:37;5.03;;;2.30;;
83398;SDS011;73326;43.228;0.106;2023-11-22T13:20:06;3.15;;;2.20;;
83398;SDS011;73326;43.228;0.106;2023-11-22T13:22:39;5.20;;;2.95;;
83398;SDS011;73326;43.228;0.106;2023-11-22T13:25:05;3.55;;;2.78;;
83398;SDS011;73326;43.228;0.106;2023-11-22T13:27:31;5.82;;;3.40;;
83398;SDS011;73326;43.228;0.106;2023-11-22T13:29:57;5.78;;;2.70;;
83398;SDS011;73326;43.228;0.106;2023-11-22T13:32:23;4.10;;;2.85;;
83398;SDS011;73326;43.228;0.106;2023-11-22T13:34:51;3.47;;;2.33;;
83398;SDS011;73326;43.228;0.106;2023-11-22T13:37:23;3.85;;;2.58;;
83398;SDS011;73326;43.228;0.106;2023-11-22T13:39:49;6.28;;;3.30;;
83398;SDS011;73326;43.228;0.106;2023-11-22T13:42:15;3.00;;;2.20;;
83398;SDS011;73326;43.228;0.106;2023-11-22T13:44:41;4.30;;;2.95;;
83398;SDS011;73326;43.228;0.106;2023-11-22T13:47:09;3.35;;;2.25;;
83398;SDS011;73326;43.228;0.106;2023-11-22T13:49:35;3.90;;;2.15;;
83398;SDS011;73326;43.228;0.106;2023-11-22T13:52:02;3.97;;;2.42;;
83398;SDS011;73326;43.228;0.106;2023-11-22T13:54:28;2.58;;;2.10;;
83398;SDS011;73326;43.228;0.106;2023-11-22T13:56:54;2.38;;;1.85;;
83398;SDS011;73326;43.228;0.106;2023-11-22T13:59:21;4.18;;;1.95;;
83398;SDS011;73326;43.228;0.106;2023-11-22T14:01:47;2.53;;;2.13;;
83398;SDS011;73326;43.228;0.106;2023-11-22T14:04:13;2.10;;;1.92;;
83398;SDS011;73326;43.228;0.106;2023-11-22T14:06:39;2.25;;;2.05;;
83398;SDS011;73326;43.228;0.106;2023-11-22T14:09:05;2.78;;;2.40;;
83398;SDS011;73326;43.228;0.106;2023-11-22T14:11:33;3.72;;;2.20;;
83398;SDS011;73326;43.228;0.106;2023-11-22T14:14:01;2.65;;;2.35;;
83398;SDS011;73326;43.228;0.106;2023-11-22T14:16:28;3.70;;;2.50;;
83398;SDS011;73326;43.228;0.106;2023-11-22T14:18:59;3.08;;;2.55;;
83398;SDS011;73326;43.228;0.106;2023-11-22T14:21:25;3.65;;;3.10;;
83398;SDS011;73326;43.228;0.106;2023-11-22T14:23:51;3.70;;;2.60;;
83398;SDS011;73326;43.228;0.106;2023-11-22T14:26:18;9.05;;;2.35;;
83398;SDS011;73326;43.228;0.106;2023-11-22T14:28:47;3.42;;;2.33;;
83398;SDS011;73326;43.228;0.106;2023-11-22T14:31:14;5.47;;;2.45;;
83398;SDS011;73326;43.228;0.106;2023-11-22T14:33:41;2.88;;;2.50;;
83398;SDS011;73326;43.228;0.106;2023-11-22T14:36:07;2.88;;;2.35;;
83398;SDS011;73326;43.228;0.106;2023-11-22T14:38:33;6.25;;;2.80;;
83398;SDS011;73326;43.228;0.106;2023-11-22T14:40:59;3.33;;;2.78;;
83398;SDS011;73326;43.228;0.106;2023-11-22T14:43:25;6.57;;;2.88;;
83398;SDS011;73326;43.228;0.106;2023-11-22T14:45:51;3.17;;;2.60;;